Bei Facebook empfehlenBei Twitter postenGoogle plusPinterest

Das Wetter im Erzgebirge am 12.07.2015

Wetter und Klima am 12.07.2015 Holzhau im Erzgebirge (630m ü.NN)
Letzte gemessene Temperatur und Uhrzeit der Messung23:45:00 Uhr12.60 °C
Temperatur (Maximum / Höchstwert) und Uhrzeit der Messung15:45:00 Uhr26.90 °C
Temperatur (Minimum / Tiefstwert) und Uhrzeit der Messung05:30:007.80 °C
Errechneter Absolutwert der Temperaturschwankungen zwischen Tmin und Tmax des Tages19.10 K
Errechnete Tagesmitteltemperatur17.34167 °C
Gesamt - Niederschlag des Tages (in flüssiger Form)1.04 Liter / m²
Luftdruck (Maximum / Höchstwert) und Zeitpunkt der Messung23:30:00 Uhr1016.30 hPa
Luftdruck (Minimum / Tiefstwert) und Zeitpunkt der Messung18:00:00 Uhr1014.60 hPa
Errechneter Absolutwert der Luftdruckschwankungen des Tages1.70 hPa
Höchste gemessene Windgeschwindigkeit und Uhrzeit der Messung13:45:00 Uhr8.64 km/h
Errechnete Windhäufigkeit in Relation zu den Messwerten des Tages4.16667 %
Niedrigste Windkühle (Windchill) und Zeitpunkt der Messung05:30:00 Uhr7.80 °C
Taupunkt (Maximum / Höchstwert) und Uhrzeit der Messung08:45:00 Uhr15.50 °C
Taupunkt (Minimum / Tiefstwert) und Uhrzeit der Messung05:00:005.90 °C
Anzahl der automatisch eingelesenen Messwerte 96

Detaillierte Wetter- und Klima- Messwerte für den 12.07.2015 in Holzhau im Erzgebirge (630m ü.NN)
ZeitTemperaturLuftdruckRel. LuftfeuchteWindWindrichtungWindchillTaupunktNiederschlag l/m²
23:45:0012.60 °C1016.20 hPa90.00 %11.00 °C1.04
23:30:0012.80 °C1016.30 hPa90.00 %11.20 °C1.04
23:15:0012.90 °C1016.30 hPa89.00 %11.10 °C0.52
23:00:0013.00 °C1016.20 hPa89.00 %11.20 °C0.52
22:45:0013.20 °C1016.10 hPa88.00 %11.30 °C0.52
22:30:0013.40 °C1016.00 hPa88.00 %11.50 °C0.52
22:15:0013.60 °C1016.10 hPa87.00 %11.50 °C0.52
22:00:0013.60 °C1016.10 hPa85.00 %11.10 °C0.52
21:45:0013.90 °C1015.90 hPa84.00 %11.20 °C 
21:30:0014.20 °C1016.10 hPa82.00 %11.20 °C 
21:15:0014.80 °C1015.90 hPa79.00 %11.20 °C 
21:00:0015.30 °C1015.70 hPa79.00 %11.70 °C 
20:45:0015.60 °C1015.50 hPa77.00 %11.60 °C 
20:30:0016.10 °C1015.50 hPa75.00 %11.70 °C 
20:15:0016.60 °C1015.50 hPa72.00 %11.50 °C 
20:00:0017.10 °C1015.20 hPa70.00 %11.60 °C 
19:45:0017.80 °C1015.20 hPa67.00 %11.60 °C 
19:30:0018.90 °C1015.20 hPa64.00 %4.68 km/hWNW18.90 °C11.90 °C 
19:15:0019.70 °C1015.10 hPa60.00 %11.70 °C 
19:00:0020.20 °C1015.00 hPa59.00 %11.90 °C 
18:45:0020.60 °C1015.10 hPa57.00 %11.80 °C 
18:30:0021.60 °C1015.10 hPa56.00 %12.50 °C 
18:15:0022.30 °C1014.80 hPa55.00 %12.80 °C 
18:00:0022.70 °C1014.60 hPa55.00 %13.20 °C 
17:45:0022.80 °C1014.70 hPa54.00 %13.00 °C 
17:30:0023.50 °C1014.80 hPa52.00 %13.10 °C 
17:15:0024.10 °C1014.70 hPa51.00 %13.30 °C 
17:00:0024.30 °C1014.60 hPa52.00 %13.80 °C 
16:45:0024.30 °C1014.80 hPa50.00 %7.56 km/hW25.80 °C13.20 °C 
16:30:0024.80 °C1014.80 hPa51.00 %14.00 °C 
16:15:0025.60 °C1014.90 hPa49.00 %14.10 °C 
16:00:0026.50 °C1014.70 hPa47.00 %14.30 °C 
15:45:0026.90 °C1014.70 hPa46.00 %14.30 °C 
15:30:0026.30 °C1014.70 hPa49.00 %6.84 km/hWNW28.20 °C14.70 °C 
15:15:0025.90 °C1014.90 hPa47.00 %13.70 °C 
15:00:0026.40 °C1014.70 hPa45.00 %13.50 °C 
14:45:0026.60 °C1015.00 hPa44.00 %13.30 °C 
14:30:0026.60 °C1014.90 hPa43.00 %13.00 °C 
14:15:0025.80 °C1015.00 hPa45.00 %13.00 °C 
14:00:0025.60 °C1015.30 hPa42.00 %11.70 °C 
13:45:0025.80 °C1015.40 hPa44.00 %8.64 km/hWNW27.50 °C12.60 °C 
13:30:0025.50 °C1015.30 hPa44.00 %12.40 °C 
13:15:0026.30 °C1015.30 hPa45.00 %13.40 °C 
13:00:0025.80 °C1015.40 hPa45.00 %13.00 °C 
12:45:0025.80 °C1015.60 hPa45.00 %13.00 °C 
12:30:0025.80 °C1015.70 hPa47.00 %13.60 °C 
12:15:0025.10 °C1015.70 hPa46.00 %12.70 °C 
12:00:0024.90 °C1015.70 hPa47.00 %12.80 °C 
11:45:0024.60 °C1015.40 hPa48.00 %12.90 °C 
11:30:0024.70 °C1015.60 hPa49.00 %13.30 °C 
11:15:0024.30 °C1015.70 hPa49.00 %12.90 °C 
11:00:0024.10 °C1015.70 hPa49.00 %12.70 °C 
10:45:0024.60 °C1015.60 hPa49.00 %13.20 °C 
10:30:0024.90 °C1015.60 hPa49.00 %13.50 °C 
10:15:0024.40 °C1015.40 hPa50.00 %13.30 °C 
10:00:0023.70 °C1015.20 hPa53.00 %13.60 °C 
09:45:0023.50 °C1015.30 hPa51.00 %12.80 °C 
09:30:0023.00 °C1015.20 hPa54.00 %13.20 °C 
09:15:0022.70 °C1015.50 hPa58.00 %14.00 °C 
09:00:0022.80 °C1015.40 hPa62.00 %15.10 °C 
08:45:0021.40 °C1015.40 hPa69.00 %15.50 °C 
08:30:0019.60 °C1015.50 hPa72.00 %14.40 °C 
08:15:0018.60 °C1015.30 hPa71.00 %13.20 °C 
08:00:0017.20 °C1015.40 hPa74.00 %12.50 °C 
07:45:0016.40 °C1015.50 hPa76.00 %12.20 °C 
07:30:0014.30 °C1015.50 hPa83.00 %11.50 °C 
07:15:0011.30 °C1015.30 hPa87.00 %9.20 °C 
07:00:0010.20 °C1015.30 hPa88.00 %8.30 °C 
06:45:009.80 °C1015.30 hPa88.00 %7.90 °C 
06:30:009.40 °C1015.20 hPa89.00 %7.70 °C 
06:15:009.10 °C1015.40 hPa89.00 %7.40 °C 
06:00:008.50 °C1015.30 hPa90.00 %7.00 °C 
05:45:008.10 °C1015.30 hPa89.00 %6.40 °C 
05:30:007.80 °C1015.30 hPa89.00 %6.10 °C 
05:15:007.80 °C1015.50 hPa89.00 %6.10 °C 
05:00:007.80 °C1015.60 hPa88.00 %5.90 °C 
04:45:007.90 °C1015.50 hPa88.00 %6.00 °C 
04:30:007.90 °C1015.40 hPa88.00 %6.00 °C 
04:15:008.10 °C1015.50 hPa88.00 %6.20 °C 
04:00:008.30 °C1015.50 hPa88.00 %6.40 °C 
03:45:008.30 °C1015.70 hPa88.00 %6.40 °C 
03:30:008.20 °C1015.60 hPa87.00 %6.20 °C 
03:15:008.10 °C1015.60 hPa87.00 %6.10 °C 
03:00:008.20 °C1015.70 hPa86.00 %6.00 °C 
02:45:008.30 °C1015.80 hPa86.00 %6.10 °C 
02:30:008.40 °C1015.90 hPa85.00 %6.00 °C 
02:15:008.80 °C1015.90 hPa85.00 %6.40 °C 
02:00:008.90 °C1015.90 hPa85.00 %6.50 °C 
01:45:009.10 °C1016.10 hPa85.00 %6.70 °C 
01:30:009.30 °C1016.10 hPa84.00 %6.70 °C 
01:15:009.40 °C1016.10 hPa84.00 %6.80 °C 
01:00:009.50 °C1016.00 hPa84.00 %6.90 °C 
00:45:009.60 °C1016.10 hPa83.00 %6.90 °C 
00:30:009.90 °C1016.10 hPa82.00 %7.00 °C 
00:15:0010.10 °C1016.10 hPa82.00 %7.20 °C 
00:00:0010.40 °C1016.20 hPa81.00 %7.30 °C 

Permanenter Link zu dieser Seite: Wetter im Erzgebirge am 12.07.2015
Performance-Info: Die Erstellung der Seite / Statistik(en) / Tabelle(n) erforderte 5 Datenbankserver-Abfrage(n) und dauerte 100 Millisekunden. (Dieser Messwert ist von der Gesamt-Auslastung des Servers abhängig.)
Erzgebirge - Wetter | Erzgebirge - Wetter (Mobilgeräte) | Komplette Klimadatenbank